Aviation Digital Data Service (ADDS)

Output produced by TAFs form (1512 UTC 23 October 2017)
found at http://www.aviationweather.gov/adds/tafs/
 
KPIT 231504Z 2315/2418 14012KT P6SM BKN060 
     FM231600 16015G22KT P6SM -SHRA OVC050 
     FM232200 16012G20KT 4SM RA OVC025 
     FM240700 20010G18KT P6SM OVC010 
     FM241500 19012G18KT P6SM BKN035
       
KAGC 231504Z 2315/2412 14010G16KT P6SM OVC070 
     FM231600 15015G22KT P6SM -SHRA OVC050 
     FM232300 16012G20KT 4SM RA OVC025 
     FM240700 20010G18KT P6SM OVC010
       
KBVI 231504Z 2315/2412 13010G16KT P6SM BKN060 
     FM231700 15015G25KT P6SM -SHRA OVC050 
     FM232300 16012G20KT 4SM RA OVC025 
     FM240700 20010G18KT P6SM OVC010
       
KDUJ 231504Z 2315/2412 14012G20KT P6SM BKN100 
     FM231900 15012G25KT P6SM -SHRA OVC050 
     FM240100 15015G30KT 3SM RA OVC008 
     FM240800 21012G20KT P6SM OVC010
       
KFKL 231405Z 2314/2412 14015G28KT P6SM -SHRA OVC050 
     FM232200 15015G30KT 3SM RA OVC008 
     FM240700 21012G20KT P6SM OVC010
       
KHLG 231120Z 2312/2412 13008KT P6SM OVC070 
     FM231500 15015G25KT P6SM -SHRA BKN050 
     FM232200 16012G25KT 4SM RA OVC020 
     FM240400 18012G18KT P6SM OVC010
       
KLBE 231120Z 2312/2412 14006KT P6SM BKN250 
     FM231500 15012G25KT P6SM SCT015 BKN060 
     FM232000 15015G30KT P6SM VCSH BKN025 
     FM240000 16012G20KT 3SM RA OVC010 
     FM240800 20010G18KT P6SM OVC010
       
KMGW 231120Z 2312/2412 13006KT P6SM BKN250 
     FM231500 13012G22KT P6SM -SHRA BKN060 
     FM232300 15012G25KT 3SM RA OVC030 
     FM240600 20010KT P6SM OVC020
       
KZZV 231504Z 2315/2412 15012G22KT P6SM -SHRA OVC050 
     FM232000 16012G25KT 3SM RA OVC025 
     FM240200 18012G18KT P6SM OVC010